createdAt,value
2018-04-24T00:00:33.913Z,13.10
2018-04-24T00:03:01.467Z,13.33
2018-04-24T00:05:28.992Z,14.80
2018-04-24T00:07:57.324Z,13.63
2018-04-24T00:10:24.867Z,13.00
2018-04-24T00:12:52.387Z,13.73
2018-04-24T00:15:19.928Z,12.70
2018-04-24T00:17:47.470Z,15.27
2018-04-24T00:20:14.990Z,12.77
2018-04-24T00:22:42.514Z,12.10
2018-04-24T00:25:10.824Z,13.93
2018-04-24T00:27:38.357Z,13.53
2018-04-24T00:30:05.915Z,14.70
2018-04-24T00:32:34.204Z,14.60
2018-04-24T00:35:01.736Z,13.73
2018-04-24T00:37:30.066Z,14.27
2018-04-24T00:39:57.621Z,14.47
2018-04-24T00:42:25.165Z,14.70
2018-04-24T00:44:52.723Z,14.77
2018-04-24T00:47:20.274Z,14.27
2018-04-24T00:49:47.797Z,13.73
2018-04-24T00:52:15.318Z,12.60
2018-04-24T00:54:42.863Z,14.10
2018-04-24T00:57:10.420Z,13.13
2018-04-24T00:59:37.946Z,13.87
2018-04-24T01:02:06.227Z,13.80
2018-04-24T01:04:33.780Z,13.77
2018-04-24T01:07:01.323Z,12.70
2018-04-24T01:09:28.848Z,12.30
2018-04-24T01:11:56.417Z,12.40
2018-04-24T01:14:23.945Z,11.70
2018-04-24T01:16:51.507Z,13.23
2018-04-24T01:19:19.058Z,12.83
2018-04-24T01:21:46.614Z,12.95
2018-04-24T01:24:14.140Z,12.60
2018-04-24T01:26:41.688Z,11.70
2018-04-24T01:29:10.749Z,13.40
2018-04-24T01:31:38.302Z,13.63
2018-04-24T01:34:05.838Z,12.93
2018-04-24T01:36:34.162Z,13.13
2018-04-24T01:39:01.691Z,13.32
2018-04-24T01:41:29.249Z,13.90
2018-04-24T01:43:56.811Z,13.48
2018-04-24T01:46:24.385Z,14.32
2018-04-24T01:48:51.940Z,11.82
2018-04-24T01:51:19.497Z,13.52
2018-04-24T01:53:47.058Z,14.07
2018-04-24T01:56:14.943Z,13.75
2018-04-24T01:58:42.474Z,14.75
2018-04-24T02:01:10.034Z,13.32
2018-04-24T02:03:37.561Z,13.90
2018-04-24T02:06:05.879Z,14.65
2018-04-24T02:08:33.462Z,14.77
2018-04-24T02:11:01.027Z,13.00
2018-04-24T02:13:28.595Z,13.85
2018-04-24T02:15:56.155Z,15.52
2018-04-24T02:18:23.716Z,11.90
2018-04-24T02:20:51.270Z,13.02
2018-04-24T02:23:18.810Z,12.65
2018-04-24T02:25:46.335Z,11.48
2018-04-24T02:28:13.860Z,12.60
2018-04-24T02:30:41.386Z,13.50
2018-04-24T02:33:08.969Z,13.10
2018-04-24T02:35:36.526Z,13.57
2018-04-24T02:38:04.079Z,14.13
2018-04-24T02:40:31.643Z,13.23
2018-04-24T02:42:59.170Z,14.45
2018-04-24T02:45:26.698Z,13.57
2018-04-24T02:47:54.251Z,10.98
2018-04-24T02:50:21.815Z,12.48
2018-04-24T02:52:49.366Z,14.02
2018-04-24T02:55:16.901Z,11.90
2018-04-24T02:57:44.431Z,11.73
2018-04-24T03:00:11.951Z,14.60
2018-04-24T03:02:39.481Z,13.43
2018-04-24T03:05:07.010Z,10.55
2018-04-24T03:07:34.583Z,11.70
2018-04-24T03:10:02.119Z,12.00
2018-04-24T03:12:29.655Z,12.15
2018-04-24T03:14:57.211Z,11.73
2018-04-24T03:17:24.768Z,11.43
2018-04-24T03:19:52.304Z,12.85
2018-04-24T03:22:20.637Z,12.20
2018-04-24T03:24:48.159Z,12.17
2018-04-24T03:27:15.715Z,12.68
2018-04-24T03:29:43.278Z,12.52
2018-04-24T03:32:10.835Z,12.55
2018-04-24T03:34:38.400Z,12.15
2018-04-24T03:37:05.948Z,12.50
2018-04-24T03:39:34.254Z,12.30
2018-04-24T03:42:01.854Z,11.85
2018-04-24T03:44:29.415Z,11.48
2018-04-24T03:46:57.073Z,12.40
2018-04-24T03:49:24.678Z,11.60
2018-04-24T03:51:52.217Z,11.52
2018-04-24T03:54:19.746Z,11.93
2018-04-24T03:56:47.295Z,11.55
2018-04-24T03:59:16.342Z,11.32
2018-04-24T04:01:43.875Z,11.20
2018-04-24T04:04:11.424Z,11.30
2018-04-24T04:06:38.954Z,11.50
2018-04-24T04:09:06.513Z,10.50
2018-04-24T04:11:35.217Z,10.90
2018-04-24T04:14:02.741Z,12.20
2018-04-24T04:16:31.042Z,13.30
2018-04-24T04:19:10.384Z,12.60
2018-04-24T04:21:49.767Z,10.95
2018-04-24T04:24:28.989Z,10.07
2018-04-24T04:26:56.521Z,12.43
2018-04-24T04:29:25.779Z,11.27
2018-04-24T04:31:53.359Z,12.55
2018-04-24T04:34:20.927Z,12.85
2018-04-24T04:36:49.979Z,12.60
2018-04-24T04:39:17.538Z,13.27
2018-04-24T04:41:45.112Z,11.93
2018-04-24T04:44:12.671Z,14.25
2018-04-24T04:46:40.194Z,13.40
2018-04-24T04:49:08.527Z,12.80
2018-04-24T04:51:36.049Z,13.60
2018-04-24T04:54:03.604Z,13.77
2018-04-24T04:56:31.134Z,14.10
2018-04-24T04:58:58.710Z,12.20
2018-04-24T05:01:27.017Z,12.63
2018-04-24T05:03:54.552Z,10.43
2018-04-24T05:06:22.102Z,9.80
2018-04-24T05:08:50.398Z,11.10
2018-04-24T05:11:17.955Z,10.10
2018-04-24T05:13:45.495Z,11.40
2018-04-24T05:16:13.802Z,11.35
2018-04-24T05:18:41.368Z,10.60
2018-04-24T05:21:08.932Z,11.30
2018-04-24T05:23:36.509Z,11.70
2018-04-24T05:26:04.044Z,10.95
2018-04-24T05:28:31.591Z,11.65
2018-04-24T05:30:59.125Z,11.15
2018-04-24T05:33:27.420Z,10.85
2018-04-24T05:35:54.937Z,10.80
2018-04-24T05:38:22.490Z,13.23
2018-04-24T05:40:51.521Z,12.30
2018-04-24T05:43:19.850Z,11.95
2018-04-24T05:45:47.379Z,13.52
2018-04-24T05:48:14.894Z,11.60
2018-04-24T05:50:42.419Z,11.30
2018-04-24T05:53:09.953Z,13.27
2018-04-24T05:55:37.505Z,12.95
2018-04-24T05:58:05.039Z,12.80
2018-04-24T06:00:33.370Z,13.35
2018-04-24T06:03:00.899Z,14.55
2018-04-24T06:05:28.469Z,12.93
2018-04-24T06:07:56.001Z,13.18
2018-04-24T06:10:23.562Z,13.70
2018-04-24T06:12:51.985Z,11.82
2018-04-24T06:15:19.542Z,11.75
2018-04-24T06:17:47.076Z,11.43
2018-04-24T06:20:14.614Z,11.75
2018-04-24T06:22:42.908Z,9.77
2018-04-24T06:25:10.471Z,10.48
2018-04-24T06:27:38.067Z,10.63
2018-04-24T06:30:05.625Z,9.93
2018-04-24T06:32:33.175Z,10.03
2018-04-24T06:35:00.735Z,10.18
2018-04-24T06:37:28.280Z,8.87
2018-04-24T06:39:55.815Z,11.23
2018-04-24T06:42:23.425Z,10.83
2018-04-24T06:44:50.963Z,10.07
2018-04-24T06:47:18.513Z,9.57
2018-04-24T06:49:46.076Z,11.47
2018-04-24T06:52:13.628Z,11.27
2018-04-24T06:54:41.151Z,9.70
2018-04-24T06:57:08.699Z,10.87
2018-04-24T06:59:36.226Z,10.97
2018-04-24T07:02:03.742Z,9.87
2018-04-24T07:04:32.031Z,10.13
2018-04-24T07:06:59.585Z,10.70
2018-04-24T07:09:27.903Z,10.03
2018-04-24T07:11:55.427Z,9.70
2018-04-24T07:14:22.981Z,10.47
2018-04-24T07:16:51.305Z,10.20
2018-04-24T07:19:18.880Z,9.57
2018-04-24T07:21:46.431Z,9.33
2018-04-24T07:24:13.973Z,10.30
2018-04-24T07:26:41.524Z,10.50
2018-04-24T07:29:09.095Z,10.63
2018-04-24T07:31:36.650Z,9.33
2018-04-24T07:34:04.195Z,9.83
2018-04-24T07:36:31.763Z,9.77
2018-04-24T07:38:59.312Z,9.70
2018-04-24T07:41:26.827Z,9.77
2018-04-24T07:43:54.341Z,9.77
2018-04-24T07:46:21.885Z,9.40
2018-04-24T07:48:49.430Z,8.80
2018-04-24T07:51:16.975Z,9.93
2018-04-24T07:53:44.505Z,8.63
2018-04-24T07:56:12.023Z,8.33
2018-04-24T07:58:39.538Z,8.50
2018-04-24T08:01:07.102Z,9.20
2018-04-24T08:03:34.628Z,8.20
2018-04-24T08:06:02.163Z,9.90
2018-04-24T08:08:29.677Z,8.80
2018-04-24T08:10:57.228Z,10.57
2018-04-24T08:13:24.799Z,8.07
2018-04-24T08:15:53.105Z,10.07
2018-04-24T08:18:20.637Z,9.20
2018-04-24T08:20:48.166Z,9.03
2018-04-24T08:23:15.678Z,7.40
2018-04-24T08:25:43.227Z,8.60
2018-04-24T08:28:11.513Z,8.70
2018-04-24T08:30:39.819Z,8.70
2018-04-24T08:33:07.355Z,8.40
2018-04-24T08:35:34.879Z,8.50
2018-04-24T08:38:02.393Z,9.33
2018-04-24T08:40:29.918Z,7.57
2018-04-24T08:42:58.203Z,6.70
2018-04-24T08:45:26.492Z,7.00
2018-04-24T08:47:54.191Z,6.43
2018-04-24T08:50:22.444Z,7.47
2018-04-24T08:52:49.974Z,6.77
2018-04-24T08:55:17.495Z,6.07
2018-04-24T08:57:45.035Z,7.20
2018-04-24T09:00:12.581Z,6.57
2018-04-24T09:02:40.097Z,5.77
2018-04-24T09:05:08.991Z,6.40
2018-04-24T09:07:37.269Z,5.90
2018-04-24T09:10:05.539Z,6.40
2018-04-24T09:12:33.852Z,6.70
2018-04-24T09:15:01.417Z,5.97
2018-04-24T09:17:28.937Z,6.37
2018-04-24T09:19:57.210Z,6.93
2018-04-24T09:22:25.524Z,8.20
2018-04-24T09:24:53.074Z,7.90
2018-04-24T09:27:20.628Z,8.53
2018-04-24T09:29:53.765Z,7.27
2018-04-24T09:32:21.298Z,8.93
2018-04-24T09:34:48.817Z,8.30
2018-04-24T09:37:16.335Z,7.70
2018-04-24T09:39:44.046Z,7.70
2018-04-24T09:42:11.610Z,7.90
2018-04-24T09:44:39.163Z,7.53
2018-04-24T09:47:06.691Z,8.40
2018-04-24T09:49:34.262Z,7.40
2018-04-24T09:52:01.793Z,7.37
2018-04-24T09:54:29.332Z,8.53
2018-04-24T09:56:56.854Z,8.83
2018-04-24T09:59:24.373Z,8.97
2018-04-24T10:01:51.881Z,8.07
2018-04-24T10:04:20.175Z,7.83
2018-04-24T10:06:47.691Z,8.60
2018-04-24T10:09:15.239Z,7.30
2018-04-24T10:11:42.802Z,8.90
2018-04-24T10:14:10.323Z,8.50
2018-04-24T10:16:37.841Z,7.60
2018-04-24T10:19:05.376Z,9.00
2018-04-24T10:21:32.926Z,7.63
2018-04-24T10:24:00.443Z,7.27
2018-04-24T10:26:27.985Z,7.03
2018-04-24T10:28:56.356Z,6.33
2018-04-24T10:31:23.845Z,6.37
2018-04-24T10:33:51.399Z,6.33
2018-04-24T10:36:18.944Z,7.77
2018-04-24T10:38:47.280Z,6.20
2018-04-24T10:41:14.822Z,6.90
2018-04-24T10:43:42.419Z,6.40
2018-04-24T10:46:09.882Z,6.30
2018-04-24T10:48:38.164Z,6.20
2018-04-24T10:51:06.470Z,5.60
2018-04-24T10:53:34.627Z,5.90
2018-04-24T10:56:02.181Z,5.50
2018-04-24T10:58:29.690Z,6.87
2018-04-24T11:00:57.243Z,6.20
2018-04-24T11:03:24.775Z,5.97
2018-04-24T11:05:52.301Z,7.27
2018-04-24T11:08:21.360Z,5.90
2018-04-24T11:10:48.908Z,6.77
2018-04-24T11:13:16.422Z,6.00
2018-04-24T11:15:43.964Z,7.07
2018-04-24T11:18:11.511Z,6.90
2018-04-24T11:20:40.538Z,6.47
2018-04-24T11:23:08.814Z,6.97
2018-04-24T11:25:37.092Z,7.10
2018-04-24T11:28:04.610Z,6.93
2018-04-24T11:30:32.114Z,6.73
2018-04-24T11:32:59.658Z,6.67
2018-04-24T11:35:27.206Z,6.00
2018-04-24T11:37:54.727Z,6.30
2018-04-24T11:40:22.243Z,6.40
2018-04-24T11:42:51.341Z,5.43
2018-04-24T11:45:19.630Z,6.30
2018-04-24T11:47:47.899Z,5.50
2018-04-24T11:50:16.200Z,5.20
2018-04-24T11:52:43.726Z,5.80
2018-04-24T11:55:11.277Z,5.20
2018-04-24T11:57:39.555Z,5.30
2018-04-24T12:00:07.863Z,5.40
2018-04-24T12:02:35.407Z,5.67
2018-04-24T12:05:02.940Z,5.20
2018-04-24T12:07:30.464Z,4.93
2018-04-24T12:09:58.038Z,4.60
2018-04-24T12:12:25.544Z,3.90
2018-04-24T12:14:53.051Z,5.07
2018-04-24T12:17:20.567Z,5.40
2018-04-24T12:19:48.121Z,5.27
2018-04-24T12:22:15.663Z,4.50
2018-04-24T12:24:43.225Z,3.70
2018-04-24T12:27:11.559Z,4.67
2018-04-24T12:29:40.093Z,4.77
2018-04-24T12:32:07.866Z,4.97
2018-04-24T12:34:35.379Z,4.97
2018-04-24T12:37:02.927Z,5.37
2018-04-24T12:39:30.466Z,6.40
2018-04-24T12:41:58.030Z,5.13
2018-04-24T12:44:25.554Z,5.60
2018-04-24T12:46:53.818Z,3.83
2018-04-24T12:49:22.128Z,5.13
2018-04-24T12:51:49.706Z,5.60
2018-04-24T12:54:17.242Z,5.70
2018-04-24T12:56:44.767Z,5.17
2018-04-24T12:59:12.334Z,5.43
2018-04-24T13:01:40.607Z,4.20
2018-04-24T13:04:08.149Z,5.17
2018-04-24T13:06:37.181Z,4.10
2018-04-24T13:09:07.471Z,4.37
2018-04-24T13:11:35.025Z,4.43
2018-04-24T13:14:02.545Z,4.10
2018-04-24T13:16:30.090Z,4.20
2018-04-24T13:18:57.611Z,3.40
2018-04-24T13:21:25.130Z,3.70
2018-04-24T13:23:52.657Z,3.47
2018-04-24T13:26:20.173Z,4.33
2018-04-24T13:28:47.682Z,3.63
2018-04-24T13:31:15.349Z,3.47
2018-04-24T13:33:42.830Z,2.60
2018-04-24T13:36:10.408Z,3.90
2018-04-24T13:38:37.929Z,3.20
2018-04-24T13:41:05.471Z,4.00
2018-04-24T13:43:33.046Z,4.07
2018-04-24T13:46:00.569Z,3.97
2018-04-24T13:48:29.064Z,5.60
2018-04-24T13:50:56.601Z,4.43
2018-04-24T13:53:24.182Z,4.00
2018-04-24T13:55:52.487Z,4.27
2018-04-24T13:58:20.038Z,4.67
2018-04-24T14:00:47.564Z,4.23
2018-04-24T14:03:15.846Z,3.60
2018-04-24T14:05:44.129Z,3.70
2018-04-24T14:08:11.670Z,3.60
2018-04-24T14:10:39.218Z,4.10
2018-04-24T14:13:07.509Z,3.60
2018-04-24T14:15:35.819Z,4.70
2018-04-24T14:18:03.332Z,3.90
2018-04-24T14:20:30.845Z,5.03
2018-04-24T14:22:58.364Z,5.73
2018-04-24T14:25:26.668Z,4.70
2018-04-24T14:27:54.191Z,4.40
2018-04-24T14:30:21.704Z,3.37
2018-04-24T14:32:49.206Z,4.10
2018-04-24T14:35:17.512Z,3.60
2018-04-24T14:37:45.134Z,4.10
2018-04-24T14:40:12.680Z,3.30
2018-04-24T14:42:40.431Z,3.60
2018-04-24T14:45:08.001Z,3.93
2018-04-24T14:47:35.520Z,3.73
2018-04-24T14:50:03.079Z,4.43
2018-04-24T14:52:30.602Z,3.17
2018-04-24T14:54:58.138Z,3.00
2018-04-24T14:57:26.437Z,3.80
2018-04-24T14:59:54.763Z,3.97
2018-04-24T15:02:22.277Z,4.13
2018-04-24T15:04:49.803Z,4.47
2018-04-24T15:07:17.355Z,4.43
2018-04-24T15:09:44.867Z,4.80
2018-04-24T15:12:12.413Z,4.13
2018-04-24T15:14:40.767Z,4.70
2018-04-24T15:17:08.332Z,3.80
2018-04-24T15:19:35.854Z,4.13
2018-04-24T15:22:03.610Z,3.30
2018-04-24T15:24:31.147Z,3.30
2018-04-24T15:26:58.658Z,3.47
2018-04-24T15:29:26.199Z,3.30
2018-04-24T15:31:53.768Z,3.90
2018-04-24T15:34:21.315Z,4.30
2018-04-24T15:36:48.880Z,3.90
2018-04-24T15:39:16.431Z,4.33
2018-04-24T15:41:43.939Z,4.80
2018-04-24T15:44:12.243Z,4.20
2018-04-24T15:46:40.513Z,3.93
2018-04-24T15:49:08.016Z,4.40
2018-04-24T15:51:35.526Z,4.00
2018-04-24T15:54:03.069Z,3.23
2018-04-24T15:56:31.348Z,3.97
2018-04-24T15:59:00.441Z,4.07
2018-04-24T16:01:29.919Z,5.03
2018-04-24T16:03:57.495Z,4.80
2018-04-24T16:06:25.813Z,3.90
2018-04-24T16:08:53.942Z,3.90
2018-04-24T16:11:21.460Z,3.23
2018-04-24T16:13:49.016Z,3.13
2018-04-24T16:16:16.532Z,3.73
2018-04-24T16:18:44.825Z,2.87
2018-04-24T16:21:12.351Z,3.30
2018-04-24T16:23:39.889Z,3.47
2018-04-24T16:26:07.451Z,3.70
2018-04-24T16:28:34.995Z,3.30
2018-04-24T16:31:02.511Z,3.37
2018-04-24T16:33:30.031Z,3.60
2018-04-24T16:35:57.576Z,3.43
2018-04-24T16:38:25.139Z,3.67
2018-04-24T16:40:52.667Z,3.60
2018-04-24T16:43:20.199Z,4.87
2018-04-24T16:45:47.727Z,4.20
2018-04-24T16:48:15.267Z,3.60
2018-04-24T16:50:42.833Z,3.17
2018-04-24T16:53:10.348Z,3.23
2018-04-24T16:55:39.049Z,3.50
2018-04-24T16:58:07.332Z,2.80
2018-04-24T17:00:34.958Z,3.20
2018-04-24T17:03:02.448Z,3.33
2018-04-24T17:05:29.964Z,3.30
2018-04-24T17:07:57.474Z,3.03
2018-04-24T17:10:25.038Z,2.60
2018-04-24T17:12:52.631Z,2.80
2018-04-24T17:15:20.145Z,2.77
2018-04-24T17:17:47.710Z,3.03
2018-04-24T17:20:15.255Z,3.47
2018-04-24T17:22:42.775Z,3.40
2018-04-24T17:25:11.106Z,3.10
2018-04-24T17:27:38.701Z,3.70
2018-04-24T17:30:06.179Z,3.60
2018-04-24T17:32:33.895Z,2.67
2018-04-24T17:35:01.439Z,3.80
2018-04-24T17:37:28.963Z,3.10
2018-04-24T17:39:56.501Z,2.83
2018-04-24T17:42:24.854Z,3.57
2018-04-24T17:44:52.384Z,3.13
2018-04-24T17:47:19.914Z,3.20
2018-04-24T17:49:48.221Z,3.20
2018-04-24T17:52:15.789Z,3.10
2018-04-24T17:54:43.348Z,2.90
2018-04-24T17:57:10.978Z,2.97
2018-04-24T17:59:38.483Z,3.93
2018-04-24T18:02:05.975Z,3.90
2018-04-24T18:04:34.292Z,3.50
2018-04-24T18:07:01.819Z,4.00
2018-04-24T18:09:29.357Z,3.50
2018-04-24T18:11:56.883Z,3.90
2018-04-24T18:14:24.408Z,4.47
2018-04-24T18:16:52.728Z,3.70
2018-04-24T18:19:20.283Z,3.67
2018-04-24T18:21:47.847Z,4.50
2018-04-24T18:24:15.407Z,4.53
2018-04-24T18:26:42.980Z,4.70
2018-04-24T18:29:10.519Z,5.03
2018-04-24T18:31:38.047Z,3.70
2018-04-24T18:34:05.576Z,4.30
2018-04-24T18:36:33.134Z,4.37
2018-04-24T18:39:01.436Z,5.30
2018-04-24T18:41:28.984Z,5.77
2018-04-24T18:43:56.539Z,6.00
2018-04-24T18:46:24.828Z,5.57
2018-04-24T18:48:52.371Z,5.20
2018-04-24T18:51:21.905Z,4.50
2018-04-24T18:53:49.477Z,5.33
2018-04-24T18:56:17.025Z,4.87
2018-04-24T18:58:44.595Z,4.77
2018-04-24T19:01:12.131Z,4.03
2018-04-24T19:03:39.663Z,4.57
2018-04-24T19:06:07.198Z,4.50
2018-04-24T19:08:34.713Z,4.27
2018-04-24T19:11:05.027Z,4.90
2018-04-24T19:13:32.568Z,4.17
2018-04-24T19:16:00.155Z,4.93
2018-04-24T19:18:33.355Z,4.60
2018-04-24T19:21:01.127Z,4.30
2018-04-24T19:23:28.691Z,4.27
2018-04-24T19:25:56.231Z,4.13
2018-04-24T19:28:23.776Z,4.13
2018-04-24T19:30:51.290Z,4.43
2018-04-24T19:33:18.818Z,6.20
2018-04-24T19:35:46.384Z,5.37
2018-04-24T19:38:13.935Z,5.13
2018-04-24T19:41:00.197Z,4.30
2018-04-24T19:43:27.717Z,5.47
2018-04-24T19:45:55.273Z,4.93
2018-04-24T19:48:28.513Z,4.73
2018-04-24T19:50:56.079Z,4.33
2018-04-24T19:53:23.640Z,5.40
2018-04-24T19:55:52.365Z,4.27
2018-04-24T19:58:20.006Z,4.57
2018-04-24T20:00:47.529Z,5.00
2018-04-24T20:03:16.408Z,5.00
2018-04-24T20:05:43.926Z,4.60
2018-04-24T20:08:11.439Z,4.53
2018-04-24T20:10:39.040Z,4.40
2018-04-24T20:13:06.535Z,4.90
2018-04-24T20:15:34.832Z,5.00
2018-04-24T20:18:03.117Z,4.97
2018-04-24T20:20:30.694Z,4.60
2018-04-24T20:22:58.231Z,4.27
2018-04-24T20:25:26.336Z,4.63
2018-04-24T20:27:53.884Z,5.07
2018-04-24T20:30:21.399Z,5.23
2018-04-24T20:32:48.960Z,4.73
2018-04-24T20:35:17.292Z,4.30
2018-04-24T20:37:44.862Z,5.00
2018-04-24T20:40:12.428Z,5.13
2018-04-24T20:42:39.986Z,5.67
2018-04-24T20:45:07.559Z,5.40
2018-04-24T20:47:35.886Z,5.33
2018-04-24T20:50:03.444Z,5.33
2018-04-24T20:52:31.014Z,5.00
2018-04-24T20:54:58.538Z,5.30
2018-04-24T20:57:26.867Z,4.70
2018-04-24T20:59:54.417Z,4.77
2018-04-24T21:02:21.950Z,4.53
2018-04-24T21:04:49.499Z,5.60
2018-04-24T21:07:17.026Z,5.20
2018-04-24T21:09:44.571Z,4.57
2018-04-24T21:12:12.125Z,4.57
2018-04-24T21:14:39.666Z,5.30
2018-04-24T21:17:07.200Z,5.30
2018-04-24T21:19:34.765Z,5.03
2018-04-24T21:22:03.069Z,5.90
2018-04-24T21:24:30.638Z,6.00
2018-04-24T21:26:58.191Z,5.53
2018-04-24T21:29:25.761Z,5.30
2018-04-24T21:31:53.300Z,5.77
2018-04-24T21:34:20.829Z,4.50
2018-04-24T21:36:49.144Z,5.17
2018-04-24T21:39:16.667Z,4.97
2018-04-24T21:41:44.995Z,4.93
2018-04-24T21:44:12.548Z,5.67
2018-04-24T21:46:40.074Z,5.00
2018-04-24T21:49:07.626Z,5.10
2018-04-24T21:51:35.194Z,5.07
2018-04-24T21:54:02.756Z,4.53
2018-04-24T21:56:30.283Z,5.40
2018-04-24T21:58:57.834Z,5.43
2018-04-24T22:01:26.155Z,5.53
2018-04-24T22:03:53.688Z,5.32
2018-04-24T22:06:21.240Z,4.82
2018-04-24T22:08:48.791Z,5.78
2018-04-24T22:11:16.352Z,5.45
2018-04-24T22:13:44.652Z,5.85
2018-04-24T22:16:12.199Z,4.77
2018-04-24T22:18:39.726Z,5.80
2018-04-24T22:21:07.324Z,6.30
2018-04-24T22:23:34.799Z,5.20
2018-04-24T22:26:02.329Z,5.75
2018-04-24T22:28:30.629Z,5.37
2018-04-24T22:30:58.173Z,5.60
2018-04-24T22:33:25.741Z,5.05
2018-04-24T22:35:53.297Z,6.80
2018-04-24T22:38:20.815Z,6.30
2018-04-24T22:40:48.342Z,5.60
2018-04-24T22:43:15.912Z,5.30
2018-04-24T22:45:43.448Z,5.25
2018-04-24T22:48:10.972Z,5.47
2018-04-24T22:50:38.525Z,6.12
2018-04-24T22:53:06.099Z,6.10
2018-04-24T22:55:33.661Z,5.90
2018-04-24T22:58:01.180Z,6.00
2018-04-24T23:00:28.728Z,5.53
2018-04-24T23:02:56.251Z,6.30
2018-04-24T23:05:23.761Z,6.03
2018-04-24T23:07:51.288Z,6.03
2018-04-24T23:10:30.693Z,5.75
2018-04-24T23:13:09.905Z,6.85
2018-04-24T23:15:49.415Z,5.82
2018-04-24T23:18:28.678Z,7.18
2018-04-24T23:21:08.722Z,5.95
2018-04-24T23:23:36.234Z,6.40
2018-04-24T23:26:03.793Z,6.75
2018-04-24T23:28:31.375Z,7.45
2018-04-24T23:30:58.936Z,6.47
2018-04-24T23:33:26.496Z,6.50
2018-04-24T23:35:54.051Z,7.20
2018-04-24T23:38:21.602Z,5.78
2018-04-24T23:40:49.156Z,6.50
2018-04-24T23:43:16.686Z,6.40
2018-04-24T23:45:44.208Z,7.15
2018-04-24T23:48:11.731Z,7.07
2018-04-24T23:50:39.270Z,7.45
2018-04-24T23:53:06.812Z,6.85
2018-04-24T23:55:34.332Z,7.30
2018-04-24T23:58:01.873Z,6.25
